sensor_id;sensor_type;location;lat;lon;timestamp;temperature;humidity
63013;DHT22;62113;45.624;11.700;2022-09-17T00:00:57;20.90;66.00
63013;DHT22;62113;45.624;11.700;2022-09-17T00:03:24;20.90;66.10
63013;DHT22;62113;45.624;11.700;2022-09-17T00:08:26;20.80;67.00
63013;DHT22;62113;45.624;11.700;2022-09-17T00:10:52;20.80;67.50
63013;DHT22;62113;45.624;11.700;2022-09-17T00:13:18;20.90;67.20
63013;DHT22;62113;45.624;11.700;2022-09-17T00:15:45;21.00;67.10
63013;DHT22;62113;45.624;11.700;2022-09-17T00:18:12;21.10;66.00
63013;DHT22;62113;45.624;11.700;2022-09-17T00:20:42;21.20;64.90
63013;DHT22;62113;45.624;11.700;2022-09-17T00:23:09;21.20;64.90
63013;DHT22;62113;45.624;11.700;2022-09-17T00:25:38;21.10;65.50
63013;DHT22;62113;45.624;11.700;2022-09-17T00:28:04;21.00;66.60
63013;DHT22;62113;45.624;11.700;2022-09-17T00:30:30;21.00;66.50
63013;DHT22;62113;45.624;11.700;2022-09-17T00:32:56;21.10;65.70
63013;DHT22;62113;45.624;11.700;2022-09-17T00:35:23;21.10;64.50
63013;DHT22;62113;45.624;11.700;2022-09-17T00:37:48;20.90;64.70
63013;DHT22;62113;45.624;11.700;2022-09-17T00:40:14;20.90;65.40
63013;DHT22;62113;45.624;11.700;2022-09-17T00:42:40;20.80;65.50
63013;DHT22;62113;45.624;11.700;2022-09-17T00:45:06;20.70;66.10
63013;DHT22;62113;45.624;11.700;2022-09-17T00:47:38;20.60;66.80
63013;DHT22;62113;45.624;11.700;2022-09-17T00:50:20;20.60;66.60
63013;DHT22;62113;45.624;11.700;2022-09-17T00:52:56;20.50;66.60
63013;DHT22;62113;45.624;11.700;2022-09-17T00:57:56;20.40;66.80
63013;DHT22;62113;45.624;11.700;2022-09-17T01:00:24;20.40;66.70
63013;DHT22;62113;45.624;11.700;2022-09-17T01:02:51;20.40;67.00
63013;DHT22;62113;45.624;11.700;2022-09-17T01:05:20;20.30;66.80
63013;DHT22;62113;45.624;11.700;2022-09-17T01:13:30;20.30;67.80
63013;DHT22;62113;45.624;11.700;2022-09-17T01:34:40;20.70;67.80
63013;DHT22;62113;45.624;11.700;2022-09-17T01:37:25;20.80;68.00
63013;DHT22;62113;45.624;11.700;2022-09-17T01:42:40;20.80;67.50
63013;DHT22;62113;45.624;11.700;2022-09-17T01:45:24;20.70;67.20
63013;DHT22;62113;45.624;11.700;2022-09-17T01:48:31;20.60;67.40
63013;DHT22;62113;45.624;11.700;2022-09-17T01:51:13;20.40;67.70
63013;DHT22;62113;45.624;11.700;2022-09-17T01:56:58;20.30;69.70
63013;DHT22;62113;45.624;11.700;2022-09-17T01:59:28;20.30;68.80
63013;DHT22;62113;45.624;11.700;2022-09-17T02:02:00;20.20;68.70
63013;DHT22;62113;45.624;11.700;2022-09-17T02:04:31;20.20;69.00
63013;DHT22;62113;45.624;11.700;2022-09-17T02:07:07;20.20;69.00
63013;DHT22;62113;45.624;11.700;2022-09-17T02:09:42;20.30;69.40
63013;DHT22;62113;45.624;11.700;2022-09-17T02:12:14;20.40;68.40
63013;DHT22;62113;45.624;11.700;2022-09-17T02:14:53;20.30;68.80
63013;DHT22;62113;45.624;11.700;2022-09-17T02:17:28;20.20;68.80
63013;DHT22;62113;45.624;11.700;2022-09-17T02:19:56;20.20;68.80
63013;DHT22;62113;45.624;11.700;2022-09-17T02:22:31;19.90;69.90
63013;DHT22;62113;45.624;11.700;2022-09-17T02:25:23;19.90;70.00
63013;DHT22;62113;45.624;11.700;2022-09-17T02:28:12;19.80;69.90
63013;DHT22;62113;45.624;11.700;2022-09-17T02:30:40;19.70;70.10
63013;DHT22;62113;45.624;11.700;2022-09-17T02:33:08;19.70;70.20
63013;DHT22;62113;45.624;11.700;2022-09-17T02:35:36;19.70;70.20
63013;DHT22;62113;45.624;11.700;2022-09-17T02:38:04;19.70;70.00
63013;DHT22;62113;45.624;11.700;2022-09-17T02:40:46;19.70;70.20
63013;DHT22;62113;45.624;11.700;2022-09-17T02:43:35;19.70;70.30
63013;DHT22;62113;45.624;11.700;2022-09-17T02:56:54;19.90;70.70
63013;DHT22;62113;45.624;11.700;2022-09-17T02:59:46;19.90;70.30
63013;DHT22;62113;45.624;11.700;2022-09-17T03:02:29;20.00;69.40
63013;DHT22;62113;45.624;11.700;2022-09-17T03:04:56;19.90;69.50
63013;DHT22;62113;45.624;11.700;2022-09-17T03:07:23;19.90;69.50
63013;DHT22;62113;45.624;11.700;2022-09-17T03:09:49;19.90;69.70
63013;DHT22;62113;45.624;11.700;2022-09-17T03:12:15;19.80;69.70
63013;DHT22;62113;45.624;11.700;2022-09-17T03:14:41;19.80;69.90
63013;DHT22;62113;45.624;11.700;2022-09-17T03:17:06;19.90;70.50
63013;DHT22;62113;45.624;11.700;2022-09-17T03:19:32;19.90;69.90
63013;DHT22;62113;45.624;11.700;2022-09-17T03:21:58;20.00;70.30
63013;DHT22;62113;45.624;11.700;2022-09-17T03:24:23;20.00;69.80
63013;DHT22;62113;45.624;11.700;2022-09-17T03:26:49;20.00;70.10
63013;DHT22;62113;45.624;11.700;2022-09-17T03:29:15;20.10;69.90
63013;DHT22;62113;45.624;11.700;2022-09-17T03:31:41;20.10;70.00
63013;DHT22;62113;45.624;11.700;2022-09-17T03:34:06;20.10;69.70
63013;DHT22;62113;45.624;11.700;2022-09-17T03:36:33;20.20;69.30
63013;DHT22;62113;45.624;11.700;2022-09-17T03:38:59;20.20;69.60
63013;DHT22;62113;45.624;11.700;2022-09-17T03:41:25;20.20;69.90
63013;DHT22;62113;45.624;11.700;2022-09-17T03:43:51;20.10;70.20
63013;DHT22;62113;45.624;11.700;2022-09-17T03:46:19;20.10;70.10
63013;DHT22;62113;45.624;11.700;2022-09-17T03:48:45;20.20;70.80
63013;DHT22;62113;45.624;11.700;2022-09-17T03:51:11;20.20;70.60
63013;DHT22;62113;45.624;11.700;2022-09-17T03:53:36;20.20;70.40
63013;DHT22;62113;45.624;11.700;2022-09-17T03:56:04;20.20;69.90
63013;DHT22;62113;45.624;11.700;2022-09-17T03:58:30;20.20;70.00
63013;DHT22;62113;45.624;11.700;2022-09-17T04:00:56;20.20;70.10
63013;DHT22;62113;45.624;11.700;2022-09-17T04:03:31;20.20;69.30
63013;DHT22;62113;45.624;11.700;2022-09-17T04:05:57;20.20;68.30
63013;DHT22;62113;45.624;11.700;2022-09-17T04:08:23;20.20;69.30
63013;DHT22;62113;45.624;11.700;2022-09-17T04:10:49;20.20;68.30
63013;DHT22;62113;45.624;11.700;2022-09-17T04:13:17;20.20;68.80
63013;DHT22;62113;45.624;11.700;2022-09-17T04:15:44;20.10;68.60
63013;DHT22;62113;45.624;11.700;2022-09-17T04:18:09;20.10;69.00
63013;DHT22;62113;45.624;11.700;2022-09-17T04:20:35;20.10;68.40
63013;DHT22;62113;45.624;11.700;2022-09-17T04:23:01;20.10;68.60
63013;DHT22;62113;45.624;11.700;2022-09-17T04:25:26;20.10;68.90
63013;DHT22;62113;45.624;11.700;2022-09-17T04:27:52;20.20;69.30
63013;DHT22;62113;45.624;11.700;2022-09-17T04:30:18;20.10;69.00
63013;DHT22;62113;45.624;11.700;2022-09-17T04:32:44;20.10;69.20
63013;DHT22;62113;45.624;11.700;2022-09-17T04:35:10;20.10;69.50
63013;DHT22;62113;45.624;11.700;2022-09-17T04:37:36;20.20;69.50
63013;DHT22;62113;45.624;11.700;2022-09-17T04:40:03;20.20;69.90
63013;DHT22;62113;45.624;11.700;2022-09-17T04:42:29;20.10;69.70
63013;DHT22;62113;45.624;11.700;2022-09-17T04:44:55;20.00;69.70
63013;DHT22;62113;45.624;11.700;2022-09-17T04:47:20;20.00;70.40
63013;DHT22;62113;45.624;11.700;2022-09-17T04:49:46;20.00;70.30
63013;DHT22;62113;45.624;11.700;2022-09-17T04:52:12;19.90;70.60
63013;DHT22;62113;45.624;11.700;2022-09-17T04:54:38;19.90;70.70
63013;DHT22;62113;45.624;11.700;2022-09-17T04:57:03;19.90;70.30
63013;DHT22;62113;45.624;11.700;2022-09-17T04:59:29;19.90;70.10
63013;DHT22;62113;45.624;11.700;2022-09-17T05:01:55;19.80;70.70
63013;DHT22;62113;45.624;11.700;2022-09-17T05:04:21;19.80;71.20
63013;DHT22;62113;45.624;11.700;2022-09-17T05:06:46;19.80;70.20
63013;DHT22;62113;45.624;11.700;2022-09-17T05:09:12;19.70;70.50
63013;DHT22;62113;45.624;11.700;2022-09-17T05:11:38;19.80;70.60
63013;DHT22;62113;45.624;11.700;2022-09-17T05:14:03;20.00;70.00
63013;DHT22;62113;45.624;11.700;2022-09-17T05:16:29;20.10;67.90
63013;DHT22;62113;45.624;11.700;2022-09-17T05:18:55;20.00;68.00
63013;DHT22;62113;45.624;11.700;2022-09-17T05:21:22;19.90;67.50
63013;DHT22;62113;45.624;11.700;2022-09-17T05:23:48;19.70;67.70
63013;DHT22;62113;45.624;11.700;2022-09-17T05:26:13;19.70;67.80
63013;DHT22;62113;45.624;11.700;2022-09-17T05:28:40;19.50;68.20
63013;DHT22;62113;45.624;11.700;2022-09-17T05:31:05;19.20;69.10
63013;DHT22;62113;45.624;11.700;2022-09-17T05:33:31;19.10;69.30
63013;DHT22;62113;45.624;11.700;2022-09-17T05:35:57;19.00;69.70
63013;DHT22;62113;45.624;11.700;2022-09-17T05:38:22;18.80;70.20
63013;DHT22;62113;45.624;11.700;2022-09-17T05:40:48;18.70;70.50
63013;DHT22;62113;45.624;11.700;2022-09-17T05:43:14;18.70;71.00
63013;DHT22;62113;45.624;11.700;2022-09-17T05:45:40;18.50;71.50
63013;DHT22;62113;45.624;11.700;2022-09-17T05:48:08;18.50;71.90
63013;DHT22;62113;45.624;11.700;2022-09-17T05:50:34;18.50;71.50
63013;DHT22;62113;45.624;11.700;2022-09-17T05:53:18;18.40;71.70
63013;DHT22;62113;45.624;11.700;2022-09-17T05:55:43;18.40;71.80
63013;DHT22;62113;45.624;11.700;2022-09-17T05:58:11;18.50;71.60
63013;DHT22;62113;45.624;11.700;2022-09-17T06:00:37;18.40;71.70
63013;DHT22;62113;45.624;11.700;2022-09-17T06:03:03;18.40;72.20
63013;DHT22;62113;45.624;11.700;2022-09-17T06:05:29;18.40;71.80
63013;DHT22;62113;45.624;11.700;2022-09-17T06:07:55;18.40;71.70
63013;DHT22;62113;45.624;11.700;2022-09-17T06:10:20;18.50;71.70
63013;DHT22;62113;45.624;11.700;2022-09-17T06:12:46;18.50;71.50
63013;DHT22;62113;45.624;11.700;2022-09-17T06:15:12;18.50;71.70
63013;DHT22;62113;45.624;11.700;2022-09-17T06:17:39;18.60;70.90
63013;DHT22;62113;45.624;11.700;2022-09-17T06:20:05;18.50;70.70
63013;DHT22;62113;45.624;11.700;2022-09-17T06:22:31;18.50;70.00
63013;DHT22;62113;45.624;11.700;2022-09-17T06:24:57;18.40;70.40
63013;DHT22;62113;45.624;11.700;2022-09-17T06:27:30;18.40;70.00
63013;DHT22;62113;45.624;11.700;2022-09-17T06:29:56;18.20;70.20
63013;DHT22;62113;45.624;11.700;2022-09-17T06:32:21;18.10;71.20
63013;DHT22;62113;45.624;11.700;2022-09-17T06:34:47;18.20;70.80
63013;DHT22;62113;45.624;11.700;2022-09-17T06:37:13;18.20;69.80
63013;DHT22;62113;45.624;11.700;2022-09-17T06:39:39;18.00;70.10
63013;DHT22;62113;45.624;11.700;2022-09-17T06:42:05;17.90;71.80
63013;DHT22;62113;45.624;11.700;2022-09-17T06:44:31;17.90;71.90
63013;DHT22;62113;45.624;11.700;2022-09-17T06:46:56;17.90;72.70
63013;DHT22;62113;45.624;11.700;2022-09-17T06:49:22;18.00;71.90
63013;DHT22;62113;45.624;11.700;2022-09-17T06:51:48;18.00;71.70
63013;DHT22;62113;45.624;11.700;2022-09-17T06:54:14;18.10;70.20
63013;DHT22;62113;45.624;11.700;2022-09-17T06:56:40;18.10;69.70
63013;DHT22;62113;45.624;11.700;2022-09-17T06:59:05;18.00;69.80
63013;DHT22;62113;45.624;11.700;2022-09-17T07:01:31;18.00;69.50
63013;DHT22;62113;45.624;11.700;2022-09-17T07:03:57;17.90;70.20
63013;DHT22;62113;45.624;11.700;2022-09-17T07:06:23;17.70;70.20
63013;DHT22;62113;45.624;11.700;2022-09-17T07:08:48;17.70;70.20
63013;DHT22;62113;45.624;11.700;2022-09-17T07:11:14;17.50;70.60
63013;DHT22;62113;45.624;11.700;2022-09-17T07:13:42;17.50;71.00
63013;DHT22;62113;45.624;11.700;2022-09-17T07:16:09;17.40;70.80
63013;DHT22;62113;45.624;11.700;2022-09-17T07:18:34;17.40;71.20
63013;DHT22;62113;45.624;11.700;2022-09-17T07:21:04;17.30;71.60
63013;DHT22;62113;45.624;11.700;2022-09-17T07:23:32;17.30;71.50
63013;DHT22;62113;45.624;11.700;2022-09-17T07:26:03;17.20;71.40
63013;DHT22;62113;45.624;11.700;2022-09-17T07:28:29;17.20;71.90
63013;DHT22;62113;45.624;11.700;2022-09-17T07:30:55;17.20;72.20
63013;DHT22;62113;45.624;11.700;2022-09-17T07:33:24;17.30;72.80
63013;DHT22;62113;45.624;11.700;2022-09-17T07:36:05;17.30;73.00
63013;DHT22;62113;45.624;11.700;2022-09-17T07:38:31;17.50;72.70
63013;DHT22;62113;45.624;11.700;2022-09-17T07:43:28;17.70;73.20
63013;DHT22;62113;45.624;11.700;2022-09-17T07:45:56;17.80;73.20
63013;DHT22;62113;45.624;11.700;2022-09-17T07:48:22;17.80;73.10
63013;DHT22;62113;45.624;11.700;2022-09-17T07:50:47;18.00;72.80
63013;DHT22;62113;45.624;11.700;2022-09-17T07:53:13;18.00;73.00
63013;DHT22;62113;45.624;11.700;2022-09-17T07:55:39;18.00;72.80
63013;DHT22;62113;45.624;11.700;2022-09-17T07:58:05;18.00;73.00
63013;DHT22;62113;45.624;11.700;2022-09-17T08:00:31;18.10;73.20
63013;DHT22;62113;45.624;11.700;2022-09-17T08:02:56;18.20;72.90
63013;DHT22;62113;45.624;11.700;2022-09-17T08:05:23;18.20;72.90
63013;DHT22;62113;45.624;11.700;2022-09-17T08:07:50;18.20;72.40
63013;DHT22;62113;45.624;11.700;2022-09-17T08:10:16;18.20;72.40
63013;DHT22;62113;45.624;11.700;2022-09-17T08:12:49;18.20;72.30
63013;DHT22;62113;45.624;11.700;2022-09-17T08:15:15;18.20;72.60
63013;DHT22;62113;45.624;11.700;2022-09-17T08:17:45;18.20;72.70
63013;DHT22;62113;45.624;11.700;2022-09-17T08:20:12;18.20;72.50
63013;DHT22;62113;45.624;11.700;2022-09-17T08:22:38;18.10;72.60
63013;DHT22;62113;45.624;11.700;2022-09-17T08:25:05;18.00;72.90
63013;DHT22;62113;45.624;11.700;2022-09-17T08:27:31;18.00;72.70
63013;DHT22;62113;45.624;11.700;2022-09-17T08:29:57;18.00;72.70
63013;DHT22;62113;45.624;11.700;2022-09-17T08:32:24;18.00;72.60
63013;DHT22;62113;45.624;11.700;2022-09-17T08:34:49;18.00;72.70
63013;DHT22;62113;45.624;11.700;2022-09-17T08:37:15;18.10;73.10
63013;DHT22;62113;45.624;11.700;2022-09-17T08:39:41;18.10;73.00
63013;DHT22;62113;45.624;11.700;2022-09-17T08:45:03;18.20;71.40
63013;DHT22;62113;45.624;11.700;2022-09-17T08:47:34;18.20;71.30
63013;DHT22;62113;45.624;11.700;2022-09-17T08:50:12;18.10;71.20
63013;DHT22;62113;45.624;11.700;2022-09-17T08:55:35;18.10;71.30
63013;DHT22;62113;45.624;11.700;2022-09-17T09:06:18;18.20;71.50
63013;DHT22;62113;45.624;11.700;2022-09-17T09:08:52;18.10;70.90
63013;DHT22;62113;45.624;11.700;2022-09-17T09:11:26;18.10;71.00
63013;DHT22;62113;45.624;11.700;2022-09-17T09:13:56;18.00;71.00
63013;DHT22;62113;45.624;11.700;2022-09-17T09:16:27;17.80;71.30
63013;DHT22;62113;45.624;11.700;2022-09-17T09:18:55;17.70;71.80
63013;DHT22;62113;45.624;11.700;2022-09-17T09:21:29;17.60;71.90
63013;DHT22;62113;45.624;11.700;2022-09-17T09:24:03;17.60;72.80
63013;DHT22;62113;45.624;11.700;2022-09-17T09:29:21;17.40;71.60
63013;DHT22;62113;45.624;11.700;2022-09-17T09:32:32;17.40;71.70
63013;DHT22;62113;45.624;11.700;2022-09-17T09:35:26;17.20;69.30
63013;DHT22;62113;45.624;11.700;2022-09-17T09:40:32;16.80;70.90
63013;DHT22;62113;45.624;11.700;2022-09-17T09:43:02;16.80;72.00
63013;DHT22;62113;45.624;11.700;2022-09-17T09:57:01;17.00;71.00
63013;DHT22;62113;45.624;11.700;2022-09-17T09:59:29;17.10;70.90
63013;DHT22;62113;45.624;11.700;2022-09-17T10:01:55;17.10;70.80
63013;DHT22;62113;45.624;11.700;2022-09-17T10:04:26;17.20;71.80
63013;DHT22;62113;45.624;11.700;2022-09-17T10:07:00;17.30;70.70
63013;DHT22;62113;45.624;11.700;2022-09-17T10:09:30;17.40;70.20
63013;DHT22;62113;45.624;11.700;2022-09-17T10:14:39;17.40;69.60
63013;DHT22;62113;45.624;11.700;2022-09-17T10:19:40;17.50;70.50
63013;DHT22;62113;45.624;11.700;2022-09-17T10:22:29;17.70;70.10
63013;DHT22;62113;45.624;11.700;2022-09-17T10:24:57;17.70;69.60
63013;DHT22;62113;45.624;11.700;2022-09-17T10:27:24;17.70;68.70
63013;DHT22;62113;45.624;11.700;2022-09-17T10:32:34;17.70;64.80
63013;DHT22;62113;45.624;11.700;2022-09-17T10:37:48;17.60;66.10
63013;DHT22;62113;45.624;11.700;2022-09-17T10:42:50;17.40;67.60
63013;DHT22;62113;45.624;11.700;2022-09-17T10:45:38;17.50;68.20
63013;DHT22;62113;45.624;11.700;2022-09-17T10:48:10;17.50;68.20
63013;DHT22;62113;45.624;11.700;2022-09-17T10:50:38;17.60;68.40
63013;DHT22;62113;45.624;11.700;2022-09-17T10:53:06;17.70;66.80
63013;DHT22;62113;45.624;11.700;2022-09-17T10:55:45;17.80;65.80
63013;DHT22;62113;45.624;11.700;2022-09-17T10:58:30;17.90;65.60
63013;DHT22;62113;45.624;11.700;2022-09-17T11:01:13;18.00;65.50
63013;DHT22;62113;45.624;11.700;2022-09-17T11:36:09;18.50;59.00
63013;DHT22;62113;45.624;11.700;2022-09-17T11:38:52;18.60;59.40
63013;DHT22;62113;45.624;11.700;2022-09-17T11:41:26;18.60;60.00
63013;DHT22;62113;45.624;11.700;2022-09-17T11:44:06;18.70;61.20
63013;DHT22;62113;45.624;11.700;2022-09-17T11:46:48;18.80;61.50
63013;DHT22;62113;45.624;11.700;2022-09-17T11:52:05;19.00;61.70
63013;DHT22;62113;45.624;11.700;2022-09-17T11:54:49;19.00;61.10
63013;DHT22;62113;45.624;11.700;2022-09-17T11:57:18;19.10;60.90
63013;DHT22;62113;45.624;11.700;2022-09-17T12:00:12;19.10;60.70
63013;DHT22;62113;45.624;11.700;2022-09-17T12:02:44;19.20;60.40
63013;DHT22;62113;45.624;11.700;2022-09-17T12:08:07;19.20;60.40
63013;DHT22;62113;45.624;11.700;2022-09-17T12:10:48;19.20;59.40
63013;DHT22;62113;45.624;11.700;2022-09-17T12:13:43;19.30;59.60
63013;DHT22;62113;45.624;11.700;2022-09-17T12:16:20;19.40;57.10
63013;DHT22;62113;45.624;11.700;2022-09-17T12:24:06;19.40;57.90
63013;DHT22;62113;45.624;11.700;2022-09-17T12:40:59;19.70;59.70
63013;DHT22;62113;45.624;11.700;2022-09-17T12:46:33;19.70;56.80
63013;DHT22;62113;45.624;11.700;2022-09-17T13:00:13;20.10;57.30
63013;DHT22;62113;45.624;11.700;2022-09-17T13:02:44;20.10;56.50
63013;DHT22;62113;45.624;11.700;2022-09-17T13:15:43;19.90;56.60
63013;DHT22;62113;45.624;11.700;2022-09-17T13:18:25;19.90;57.20
63013;DHT22;62113;45.624;11.700;2022-09-17T13:21:09;19.90;58.10
63013;DHT22;62113;45.624;11.700;2022-09-17T13:23:44;20.00;56.30
63013;DHT22;62113;45.624;11.700;2022-09-17T13:26:12;20.00;56.50
63013;DHT22;62113;45.624;11.700;2022-09-17T13:28:46;20.00;54.40
63013;DHT22;62113;45.624;11.700;2022-09-17T13:31:19;19.90;54.70
63013;DHT22;62113;45.624;11.700;2022-09-17T13:33:58;19.80;54.90
63013;DHT22;62113;45.624;11.700;2022-09-17T13:36:53;19.70;55.60
63013;DHT22;62113;45.624;11.700;2022-09-17T13:39:45;19.70;55.90
63013;DHT22;62113;45.624;11.700;2022-09-17T13:42:21;19.70;55.40
63013;DHT22;62113;45.624;11.700;2022-09-17T13:45:08;19.70;56.70
63013;DHT22;62113;45.624;11.700;2022-09-17T13:47:48;19.60;56.20
63013;DHT22;62113;45.624;11.700;2022-09-17T13:50:37;19.50;58.70
63013;DHT22;62113;45.624;11.700;2022-09-17T14:00:52;19.50;55.20
63013;DHT22;62113;45.624;11.700;2022-09-17T14:05:54;19.50;53.30
63013;DHT22;62113;45.624;11.700;2022-09-17T14:10:54;19.50;53.80
63013;DHT22;62113;45.624;11.700;2022-09-17T14:16:00;19.50;54.60
63013;DHT22;62113;45.624;11.700;2022-09-17T14:21:14;19.60;53.80
63013;DHT22;62113;45.624;11.700;2022-09-17T14:23:45;19.60;53.60
63013;DHT22;62113;45.624;11.700;2022-09-17T14:31:43;19.50;54.50
63013;DHT22;62113;45.624;11.700;2022-09-17T14:34:19;19.60;55.40
63013;DHT22;62113;45.624;11.700;2022-09-17T14:36:46;19.60;54.70
63013;DHT22;62113;45.624;11.700;2022-09-17T14:39:24;19.60;54.10
63013;DHT22;62113;45.624;11.700;2022-09-17T14:41:52;19.60;53.50
63013;DHT22;62113;45.624;11.700;2022-09-17T14:44:21;19.60;53.90
63013;DHT22;62113;45.624;11.700;2022-09-17T14:47:00;19.60;53.10
63013;DHT22;62113;45.624;11.700;2022-09-17T14:49:32;19.60;52.60
63013;DHT22;62113;45.624;11.700;2022-09-17T14:51:58;19.60;53.20
63013;DHT22;62113;45.624;11.700;2022-09-17T14:54:24;19.60;53.10
63013;DHT22;62113;45.624;11.700;2022-09-17T14:56:57;19.60;53.00
63013;DHT22;62113;45.624;11.700;2022-09-17T15:04:58;19.70;52.70
63013;DHT22;62113;45.624;11.700;2022-09-17T15:07:25;19.70;53.10
63013;DHT22;62113;45.624;11.700;2022-09-17T15:09:51;19.70;52.90
63013;DHT22;62113;45.624;11.700;2022-09-17T15:12:25;19.60;54.40
63013;DHT22;62113;45.624;11.700;2022-09-17T15:14:53;19.60;54.80
63013;DHT22;62113;45.624;11.700;2022-09-17T15:17:19;19.70;54.60
63013;DHT22;62113;45.624;11.700;2022-09-17T15:19:52;19.70;53.50
63013;DHT22;62113;45.624;11.700;2022-09-17T15:22:37;19.70;53.90
63013;DHT22;62113;45.624;11.700;2022-09-17T15:25:05;19.70;54.50
63013;DHT22;62113;45.624;11.700;2022-09-17T15:27:37;19.70;54.60
63013;DHT22;62113;45.624;11.700;2022-09-17T15:30:08;19.80;54.30
63013;DHT22;62113;45.624;11.700;2022-09-17T15:32:35;19.80;54.50
63013;DHT22;62113;45.624;11.700;2022-09-17T15:35:18;19.80;54.80
63013;DHT22;62113;45.624;11.700;2022-09-17T15:37:52;19.90;54.10
63013;DHT22;62113;45.624;11.700;2022-09-17T15:45:45;19.90;53.80
63013;DHT22;62113;45.624;11.700;2022-09-17T15:48:37;19.90;54.40
63013;DHT22;62113;45.624;11.700;2022-09-17T15:51:11;19.90;54.90
63013;DHT22;62113;45.624;11.700;2022-09-17T15:53:50;19.90;54.50
63013;DHT22;62113;45.624;11.700;2022-09-17T15:56:18;19.90;54.70
63013;DHT22;62113;45.624;11.700;2022-09-17T16:08:59;20.00;56.10
63013;DHT22;62113;45.624;11.700;2022-09-17T16:11:29;20.10;57.10
63013;DHT22;62113;45.624;11.700;2022-09-17T16:13:57;20.10;55.40
63013;DHT22;62113;45.624;11.700;2022-09-17T16:16:26;20.00;54.50
63013;DHT22;62113;45.624;11.700;2022-09-17T16:18:54;20.00;56.20
63013;DHT22;62113;45.624;11.700;2022-09-17T16:21:20;20.00;57.40
63013;DHT22;62113;45.624;11.700;2022-09-17T16:23:45;20.00;58.20
63013;DHT22;62113;45.624;11.700;2022-09-17T16:26:40;20.00;55.90
63013;DHT22;62113;45.624;11.700;2022-09-17T16:29:16;20.00;55.40
63013;DHT22;62113;45.624;11.700;2022-09-17T16:31:43;20.00;55.30
63013;DHT22;62113;45.624;11.700;2022-09-17T16:34:09;19.90;55.20
63013;DHT22;62113;45.624;11.700;2022-09-17T16:36:34;19.90;56.60
63013;DHT22;62113;45.624;11.700;2022-09-17T16:39:00;19.90;56.80
63013;DHT22;62113;45.624;11.700;2022-09-17T16:41:26;19.90;57.40
63013;DHT22;62113;45.624;11.700;2022-09-17T16:43:52;19.80;55.90
63013;DHT22;62113;45.624;11.700;2022-09-17T16:46:17;19.80;56.10
63013;DHT22;62113;45.624;11.700;2022-09-17T16:48:43;19.70;55.80
63013;DHT22;62113;45.624;11.700;2022-09-17T16:51:12;19.70;56.50
63013;DHT22;62113;45.624;11.700;2022-09-17T16:53:38;19.70;56.70
63013;DHT22;62113;45.624;11.700;2022-09-17T16:56:08;19.70;57.50
63013;DHT22;62113;45.624;11.700;2022-09-17T16:58:34;19.70;59.00
63013;DHT22;62113;45.624;11.700;2022-09-17T17:01:14;19.60;57.30
63013;DHT22;62113;45.624;11.700;2022-09-17T17:03:40;19.50;56.90
63013;DHT22;62113;45.624;11.700;2022-09-17T17:06:13;19.50;59.30
63013;DHT22;62113;45.624;11.700;2022-09-17T17:08:39;19.50;58.30
63013;DHT22;62113;45.624;11.700;2022-09-17T17:11:05;19.40;57.70
63013;DHT22;62113;45.624;11.700;2022-09-17T17:13:31;19.40;57.60
63013;DHT22;62113;45.624;11.700;2022-09-17T17:15:56;19.40;58.50
63013;DHT22;62113;45.624;11.700;2022-09-17T17:18:22;19.40;58.60
63013;DHT22;62113;45.624;11.700;2022-09-17T17:20:48;19.30;59.90
63013;DHT22;62113;45.624;11.700;2022-09-17T17:23:15;19.40;60.80
63013;DHT22;62113;45.624;11.700;2022-09-17T17:25:41;19.40;60.30
63013;DHT22;62113;45.624;11.700;2022-09-17T17:28:07;19.30;59.40
63013;DHT22;62113;45.624;11.700;2022-09-17T17:30:32;19.30;59.30
63013;DHT22;62113;45.624;11.700;2022-09-17T17:32:58;19.30;59.00
63013;DHT22;62113;45.624;11.700;2022-09-17T17:35:25;19.20;59.00
63013;DHT22;62113;45.624;11.700;2022-09-17T17:37:51;19.10;59.00
63013;DHT22;62113;45.624;11.700;2022-09-17T17:40:17;19.00;59.30
63013;DHT22;62113;45.624;11.700;2022-09-17T17:42:44;19.00;60.00
63013;DHT22;62113;45.624;11.700;2022-09-17T17:45:11;18.90;60.40
63013;DHT22;62113;45.624;11.700;2022-09-17T17:47:38;18.90;60.40
63013;DHT22;62113;45.624;11.700;2022-09-17T17:50:03;18.90;60.00
63013;DHT22;62113;45.624;11.700;2022-09-17T17:52:29;18.90;60.50
63013;DHT22;62113;45.624;11.700;2022-09-17T17:54:56;18.90;60.70
63013;DHT22;62113;45.624;11.700;2022-09-17T17:57:21;18.90;60.80
63013;DHT22;62113;45.624;11.700;2022-09-17T17:59:47;18.90;60.30
63013;DHT22;62113;45.624;11.700;2022-09-17T18:02:12;18.80;60.10
63013;DHT22;62113;45.624;11.700;2022-09-17T18:04:38;18.80;60.00
63013;DHT22;62113;45.624;11.700;2022-09-17T18:07:04;18.70;59.90
63013;DHT22;62113;45.624;11.700;2022-09-17T18:09:29;18.70;59.90
63013;DHT22;62113;45.624;11.700;2022-09-17T18:11:55;18.50;60.40
63013;DHT22;62113;45.624;11.700;2022-09-17T18:14:21;18.40;60.60
63013;DHT22;62113;45.624;11.700;2022-09-17T18:16:46;18.20;61.00
63013;DHT22;62113;45.624;11.700;2022-09-17T18:19:12;18.10;61.50
63013;DHT22;62113;45.624;11.700;2022-09-17T18:21:37;18.00;61.70
63013;DHT22;62113;45.624;11.700;2022-09-17T18:24:03;17.90;62.10
63013;DHT22;62113;45.624;11.700;2022-09-17T18:26:29;17.80;62.60
63013;DHT22;62113;45.624;11.700;2022-09-17T18:28:56;17.70;62.50
63013;DHT22;62113;45.624;11.700;2022-09-17T18:31:32;17.70;63.20
63013;DHT22;62113;45.624;11.700;2022-09-17T18:34:05;17.70;63.20
63013;DHT22;62113;45.624;11.700;2022-09-17T18:36:33;17.70;62.90
63013;DHT22;62113;45.624;11.700;2022-09-17T18:39:01;17.70;62.90
63013;DHT22;62113;45.624;11.700;2022-09-17T18:41:29;17.70;63.00
63013;DHT22;62113;45.624;11.700;2022-09-17T18:43:56;17.80;62.70
63013;DHT22;62113;45.624;11.700;2022-09-17T18:46:22;17.80;62.60
63013;DHT22;62113;45.624;11.700;2022-09-17T18:48:55;17.80;62.60
63013;DHT22;62113;45.624;11.700;2022-09-17T18:51:21;17.90;62.40
63013;DHT22;62113;45.624;11.700;2022-09-17T18:53:49;17.90;62.60
63013;DHT22;62113;45.624;11.700;2022-09-17T18:56:15;18.00;62.40
63013;DHT22;62113;45.624;11.700;2022-09-17T18:58:43;18.00;62.50
63013;DHT22;62113;45.624;11.700;2022-09-17T19:01:09;18.10;62.20
63013;DHT22;62113;45.624;11.700;2022-09-17T19:03:34;18.10;61.90
63013;DHT22;62113;45.624;11.700;2022-09-17T19:06:01;18.10;61.90
63013;DHT22;62113;45.624;11.700;2022-09-17T19:08:28;18.10;61.90
63013;DHT22;62113;45.624;11.700;2022-09-17T19:10:54;18.10;62.10